sensor_id;sensor_type;location;lat;lon;timestamp;temperature;humidity
13980;DHT22;73871;49.900;8.594;2023-11-21T00:01:16;9.70;99.90
13980;DHT22;73871;49.900;8.594;2023-11-21T00:03:43;9.60;99.90
13980;DHT22;73871;49.900;8.594;2023-11-21T00:06:10;9.70;99.90
13980;DHT22;73871;49.900;8.594;2023-11-21T00:08:37;9.70;99.90
13980;DHT22;73871;49.900;8.594;2023-11-21T00:11:04;9.70;99.90
13980;DHT22;73871;49.900;8.594;2023-11-21T00:13:34;9.70;99.90
13980;DHT22;73871;49.900;8.594;2023-11-21T00:16:01;9.60;99.90
13980;DHT22;73871;49.900;8.594;2023-11-21T00:18:28;9.60;99.90
13980;DHT22;73871;49.900;8.594;2023-11-21T00:20:55;9.60;99.90
13980;DHT22;73871;49.900;8.594;2023-11-21T00:23:21;9.60;99.90
13980;DHT22;73871;49.900;8.594;2023-11-21T00:25:48;9.60;99.90
13980;DHT22;73871;49.900;8.594;2023-11-21T00:28:15;9.50;99.90
13980;DHT22;73871;49.900;8.594;2023-11-21T00:30:42;9.60;99.90
13980;DHT22;73871;49.900;8.594;2023-11-21T00:33:08;9.50;99.90
13980;DHT22;73871;49.900;8.594;2023-11-21T00:35:35;9.50;99.90
13980;DHT22;73871;49.900;8.594;2023-11-21T00:38:02;9.40;99.90
13980;DHT22;73871;49.900;8.594;2023-11-21T00:40:32;9.50;99.90
13980;DHT22;73871;49.900;8.594;2023-11-21T00:43:00;9.40;99.90
13980;DHT22;73871;49.900;8.594;2023-11-21T00:45:30;9.50;99.90
13980;DHT22;73871;49.900;8.594;2023-11-21T00:47:56;9.50;99.90
13980;DHT22;73871;49.900;8.594;2023-11-21T00:50:26;9.50;99.90
13980;DHT22;73871;49.900;8.594;2023-11-21T00:52:55;9.50;99.90
13980;DHT22;73871;49.900;8.594;2023-11-21T00:55:22;9.50;99.90
13980;DHT22;73871;49.900;8.594;2023-11-21T00:57:50;9.50;99.90
13980;DHT22;73871;49.900;8.594;2023-11-21T01:00:17;9.50;99.90
13980;DHT22;73871;49.900;8.594;2023-11-21T01:02:44;9.50;99.90
13980;DHT22;73871;49.900;8.594;2023-11-21T01:05:11;9.50;99.90
13980;DHT22;73871;49.900;8.594;2023-11-21T01:07:39;9.50;99.90
13980;DHT22;73871;49.900;8.594;2023-11-21T01:10:06;9.50;99.90
13980;DHT22;73871;49.900;8.594;2023-11-21T01:12:36;9.50;99.90
13980;DHT22;73871;49.900;8.594;2023-11-21T01:15:05;9.50;99.90
13980;DHT22;73871;49.900;8.594;2023-11-21T01:17:34;9.50;99.90
13980;DHT22;73871;49.900;8.594;2023-11-21T01:20:02;9.50;99.90
13980;DHT22;73871;49.900;8.594;2023-11-21T01:22:29;9.50;99.90
13980;DHT22;73871;49.900;8.594;2023-11-21T01:24:56;9.50;99.90
13980;DHT22;73871;49.900;8.594;2023-11-21T01:27:23;9.40;99.90
13980;DHT22;73871;49.900;8.594;2023-11-21T01:29:50;9.50;99.90
13980;DHT22;73871;49.900;8.594;2023-11-21T01:32:21;9.50;99.90
13980;DHT22;73871;49.900;8.594;2023-11-21T01:34:49;9.50;99.90
13980;DHT22;73871;49.900;8.594;2023-11-21T01:37:16;9.50;99.90
13980;DHT22;73871;49.900;8.594;2023-11-21T01:39:44;9.50;99.90
13980;DHT22;73871;49.900;8.594;2023-11-21T01:42:12;9.50;99.90
13980;DHT22;73871;49.900;8.594;2023-11-21T01:44:40;9.50;99.90
13980;DHT22;73871;49.900;8.594;2023-11-21T01:47:08;9.50;99.90
13980;DHT22;73871;49.900;8.594;2023-11-21T01:49:36;9.50;99.90
13980;DHT22;73871;49.900;8.594;2023-11-21T01:52:04;9.50;99.90
13980;DHT22;73871;49.900;8.594;2023-11-21T01:54:32;9.60;99.90
13980;DHT22;73871;49.900;8.594;2023-11-21T01:56:59;9.60;99.90
13980;DHT22;73871;49.900;8.594;2023-11-21T01:59:35;9.60;99.90
13980;DHT22;73871;49.900;8.594;2023-11-21T02:02:07;9.50;99.90
13980;DHT22;73871;49.900;8.594;2023-11-21T02:04:36;9.50;99.90
13980;DHT22;73871;49.900;8.594;2023-11-21T02:07:04;9.50;99.90
13980;DHT22;73871;49.900;8.594;2023-11-21T02:09:34;9.50;99.90
13980;DHT22;73871;49.900;8.594;2023-11-21T02:12:04;9.60;99.90
13980;DHT22;73871;49.900;8.594;2023-11-21T02:14:31;9.50;99.90
13980;DHT22;73871;49.900;8.594;2023-11-21T02:16:58;9.50;99.90
13980;DHT22;73871;49.900;8.594;2023-11-21T02:19:25;9.60;99.90
13980;DHT22;73871;49.900;8.594;2023-11-21T02:21:53;9.60;99.90
13980;DHT22;73871;49.900;8.594;2023-11-21T02:24:23;9.60;99.90
13980;DHT22;73871;49.900;8.594;2023-11-21T02:26:50;9.50;99.90
13980;DHT22;73871;49.900;8.594;2023-11-21T02:29:18;9.50;99.90
13980;DHT22;73871;49.900;8.594;2023-11-21T02:31:52;9.50;99.90
13980;DHT22;73871;49.900;8.594;2023-11-21T02:34:22;9.50;99.90
13980;DHT22;73871;49.900;8.594;2023-11-21T02:36:49;9.50;99.90
13980;DHT22;73871;49.900;8.594;2023-11-21T02:39:16;9.60;99.90
13980;DHT22;73871;49.900;8.594;2023-11-21T02:41:43;9.50;99.90
13980;DHT22;73871;49.900;8.594;2023-11-21T02:44:10;9.50;99.90
13980;DHT22;73871;49.900;8.594;2023-11-21T02:46:37;9.50;99.90
13980;DHT22;73871;49.900;8.594;2023-11-21T02:49:06;9.50;99.90
13980;DHT22;73871;49.900;8.594;2023-11-21T02:51:33;9.50;99.90
13980;DHT22;73871;49.900;8.594;2023-11-21T02:54:00;9.50;99.90
13980;DHT22;73871;49.900;8.594;2023-11-21T02:56:29;9.50;99.90
13980;DHT22;73871;49.900;8.594;2023-11-21T02:58:56;9.50;99.90
13980;DHT22;73871;49.900;8.594;2023-11-21T03:01:23;9.50;99.90
13980;DHT22;73871;49.900;8.594;2023-11-21T03:03:53;9.50;99.90
13980;DHT22;73871;49.900;8.594;2023-11-21T03:06:22;9.40;99.90
13980;DHT22;73871;49.900;8.594;2023-11-21T03:08:49;9.50;99.90
13980;DHT22;73871;49.900;8.594;2023-11-21T03:11:15;9.50;99.90
13980;DHT22;73871;49.900;8.594;2023-11-21T03:13:44;9.50;99.90
13980;DHT22;73871;49.900;8.594;2023-11-21T03:16:12;9.40;99.90
13980;DHT22;73871;49.900;8.594;2023-11-21T03:18:39;9.40;99.90
13980;DHT22;73871;49.900;8.594;2023-11-21T03:21:07;9.40;99.90
13980;DHT22;73871;49.900;8.594;2023-11-21T03:23:35;9.50;99.90
13980;DHT22;73871;49.900;8.594;2023-11-21T03:26:03;9.50;99.90
13980;DHT22;73871;49.900;8.594;2023-11-21T03:28:30;9.50;99.90
13980;DHT22;73871;49.900;8.594;2023-11-21T03:30:57;9.60;99.90
13980;DHT22;73871;49.900;8.594;2023-11-21T03:33:24;9.60;99.90
13980;DHT22;73871;49.900;8.594;2023-11-21T03:35:50;9.70;99.90
13980;DHT22;73871;49.900;8.594;2023-11-21T03:38:19;9.60;99.90
13980;DHT22;73871;49.900;8.594;2023-11-21T03:40:46;9.70;99.90
13980;DHT22;73871;49.900;8.594;2023-11-21T03:43:14;9.70;99.90
13980;DHT22;73871;49.900;8.594;2023-11-21T03:45:40;9.70;99.90
13980;DHT22;73871;49.900;8.594;2023-11-21T03:48:07;9.70;99.90
13980;DHT22;73871;49.900;8.594;2023-11-21T03:50:37;9.80;99.90
13980;DHT22;73871;49.900;8.594;2023-11-21T03:53:12;9.80;99.90
13980;DHT22;73871;49.900;8.594;2023-11-21T03:55:38;9.80;99.90
13980;DHT22;73871;49.900;8.594;2023-11-21T03:58:05;9.80;99.90
13980;DHT22;73871;49.900;8.594;2023-11-21T04:00:32;9.80;99.90
13980;DHT22;73871;49.900;8.594;2023-11-21T04:02:58;9.80;99.90
13980;DHT22;73871;49.900;8.594;2023-11-21T04:05:25;9.80;99.90
13980;DHT22;73871;49.900;8.594;2023-11-21T04:07:52;9.80;99.90
13980;DHT22;73871;49.900;8.594;2023-11-21T04:10:19;9.80;99.90
13980;DHT22;73871;49.900;8.594;2023-11-21T04:12:46;9.80;99.90
13980;DHT22;73871;49.900;8.594;2023-11-21T04:15:13;9.80;99.90
13980;DHT22;73871;49.900;8.594;2023-11-21T04:17:41;9.80;99.90
13980;DHT22;73871;49.900;8.594;2023-11-21T04:20:09;9.90;99.90
13980;DHT22;73871;49.900;8.594;2023-11-21T04:22:41;9.90;99.90
13980;DHT22;73871;49.900;8.594;2023-11-21T04:25:13;9.90;99.90
13980;DHT22;73871;49.900;8.594;2023-11-21T04:27:40;9.90;99.90
13980;DHT22;73871;49.900;8.594;2023-11-21T04:30:13;9.90;99.90
13980;DHT22;73871;49.900;8.594;2023-11-21T04:32:41;9.90;99.90
13980;DHT22;73871;49.900;8.594;2023-11-21T04:35:08;9.90;99.90
13980;DHT22;73871;49.900;8.594;2023-11-21T04:37:35;9.90;99.90
13980;DHT22;73871;49.900;8.594;2023-11-21T04:40:03;9.90;99.90
13980;DHT22;73871;49.900;8.594;2023-11-21T04:42:34;9.90;99.90
13980;DHT22;73871;49.900;8.594;2023-11-21T04:45:04;9.90;99.90
13980;DHT22;73871;49.900;8.594;2023-11-21T04:47:35;9.90;99.90
13980;DHT22;73871;49.900;8.594;2023-11-21T04:50:03;9.90;99.90
13980;DHT22;73871;49.900;8.594;2023-11-21T04:52:30;9.90;99.90
13980;DHT22;73871;49.900;8.594;2023-11-21T04:54:57;9.90;99.90
13980;DHT22;73871;49.900;8.594;2023-11-21T04:57:25;9.90;99.90
13980;DHT22;73871;49.900;8.594;2023-11-21T04:59:51;9.90;99.90
13980;DHT22;73871;49.900;8.594;2023-11-21T05:02:18;9.80;99.90
13980;DHT22;73871;49.900;8.594;2023-11-21T05:05:01;9.80;99.90
13980;DHT22;73871;49.900;8.594;2023-11-21T05:07:28;9.80;99.90
13980;DHT22;73871;49.900;8.594;2023-11-21T05:09:58;9.80;99.90
13980;DHT22;73871;49.900;8.594;2023-11-21T05:12:25;9.80;99.90
13980;DHT22;73871;49.900;8.594;2023-11-21T05:14:52;9.70;99.90
13980;DHT22;73871;49.900;8.594;2023-11-21T05:17:18;9.80;99.90
13980;DHT22;73871;49.900;8.594;2023-11-21T05:19:45;9.70;99.90
13980;DHT22;73871;49.900;8.594;2023-11-21T05:22:16;9.70;99.90
13980;DHT22;73871;49.900;8.594;2023-11-21T05:24:42;9.70;99.90
13980;DHT22;73871;49.900;8.594;2023-11-21T05:27:09;9.70;99.90
13980;DHT22;73871;49.900;8.594;2023-11-21T05:29:36;9.70;99.90
13980;DHT22;73871;49.900;8.594;2023-11-21T05:32:04;9.60;99.90
13980;DHT22;73871;49.900;8.594;2023-11-21T05:34:31;9.70;99.90
13980;DHT22;73871;49.900;8.594;2023-11-21T05:36:58;9.60;99.90
13980;DHT22;73871;49.900;8.594;2023-11-21T05:39:27;9.60;99.90
13980;DHT22;73871;49.900;8.594;2023-11-21T05:41:54;9.60;99.90
13980;DHT22;73871;49.900;8.594;2023-11-21T05:44:22;9.50;99.90
13980;DHT22;73871;49.900;8.594;2023-11-21T05:46:50;9.50;99.90
13980;DHT22;73871;49.900;8.594;2023-11-21T05:49:17;9.50;99.90
13980;DHT22;73871;49.900;8.594;2023-11-21T05:51:43;9.50;99.90
13980;DHT22;73871;49.900;8.594;2023-11-21T05:54:11;9.50;99.90
13980;DHT22;73871;49.900;8.594;2023-11-21T05:56:38;9.50;99.90
13980;DHT22;73871;49.900;8.594;2023-11-21T05:59:05;9.40;99.90
13980;DHT22;73871;49.900;8.594;2023-11-21T06:01:33;9.40;99.90
13980;DHT22;73871;49.900;8.594;2023-11-21T06:04:01;9.30;99.90
13980;DHT22;73871;49.900;8.594;2023-11-21T06:06:27;9.30;99.90
13980;DHT22;73871;49.900;8.594;2023-11-21T06:08:54;9.30;99.90
13980;DHT22;73871;49.900;8.594;2023-11-21T06:11:22;9.30;99.90
13980;DHT22;73871;49.900;8.594;2023-11-21T06:13:48;9.30;99.90
13980;DHT22;73871;49.900;8.594;2023-11-21T06:16:16;9.30;99.90
13980;DHT22;73871;49.900;8.594;2023-11-21T06:18:46;9.30;99.90
13980;DHT22;73871;49.900;8.594;2023-11-21T06:21:12;9.30;99.90
13980;DHT22;73871;49.900;8.594;2023-11-21T06:23:41;9.30;99.90
13980;DHT22;73871;49.900;8.594;2023-11-21T06:26:07;9.30;99.90
13980;DHT22;73871;49.900;8.594;2023-11-21T06:28:35;9.40;99.90
13980;DHT22;73871;49.900;8.594;2023-11-21T06:31:03;9.40;99.90
13980;DHT22;73871;49.900;8.594;2023-11-21T06:33:32;9.40;99.90
13980;DHT22;73871;49.900;8.594;2023-11-21T06:36:00;9.40;99.90
13980;DHT22;73871;49.900;8.594;2023-11-21T06:38:29;9.50;99.90
13980;DHT22;73871;49.900;8.594;2023-11-21T06:40:56;9.50;99.90
13980;DHT22;73871;49.900;8.594;2023-11-21T06:43:24;9.50;99.90
13980;DHT22;73871;49.900;8.594;2023-11-21T06:45:51;9.50;99.90
13980;DHT22;73871;49.900;8.594;2023-11-21T06:48:18;9.50;99.90
13980;DHT22;73871;49.900;8.594;2023-11-21T06:50:45;9.50;99.90
13980;DHT22;73871;49.900;8.594;2023-11-21T06:53:13;9.50;99.90
13980;DHT22;73871;49.900;8.594;2023-11-21T06:55:40;9.50;99.90
13980;DHT22;73871;49.900;8.594;2023-11-21T06:58:06;9.50;99.90
13980;DHT22;73871;49.900;8.594;2023-11-21T07:00:33;9.50;99.90
13980;DHT22;73871;49.900;8.594;2023-11-21T07:03:00;9.40;99.90
13980;DHT22;73871;49.900;8.594;2023-11-21T07:05:27;9.50;99.90
13980;DHT22;73871;49.900;8.594;2023-11-21T07:07:54;9.50;99.90
13980;DHT22;73871;49.900;8.594;2023-11-21T07:10:21;9.50;99.90
13980;DHT22;73871;49.900;8.594;2023-11-21T07:12:47;9.50;99.90
13980;DHT22;73871;49.900;8.594;2023-11-21T07:15:14;9.60;99.90
13980;DHT22;73871;49.900;8.594;2023-11-21T07:17:41;9.60;99.90
13980;DHT22;73871;49.900;8.594;2023-11-21T07:20:09;9.60;99.90
13980;DHT22;73871;49.900;8.594;2023-11-21T07:22:37;9.60;99.90
13980;DHT22;73871;49.900;8.594;2023-11-21T07:25:04;9.60;99.90
13980;DHT22;73871;49.900;8.594;2023-11-21T07:27:31;9.60;99.90
13980;DHT22;73871;49.900;8.594;2023-11-21T07:30:00;9.60;99.90
13980;DHT22;73871;49.900;8.594;2023-11-21T07:32:27;9.60;99.90
13980;DHT22;73871;49.900;8.594;2023-11-21T07:34:53;9.70;99.90
13980;DHT22;73871;49.900;8.594;2023-11-21T07:37:20;9.60;99.90
13980;DHT22;73871;49.900;8.594;2023-11-21T07:39:50;9.70;99.90
13980;DHT22;73871;49.900;8.594;2023-11-21T07:42:23;9.70;99.90
13980;DHT22;73871;49.900;8.594;2023-11-21T07:44:51;9.80;99.90
13980;DHT22;73871;49.900;8.594;2023-11-21T07:47:18;9.80;99.90
13980;DHT22;73871;49.900;8.594;2023-11-21T07:49:45;9.80;99.90
13980;DHT22;73871;49.900;8.594;2023-11-21T07:52:13;9.80;99.90
13980;DHT22;73871;49.900;8.594;2023-11-21T07:54:42;9.90;99.90
13980;DHT22;73871;49.900;8.594;2023-11-21T07:57:09;9.80;99.90
13980;DHT22;73871;49.900;8.594;2023-11-21T07:59:40;9.90;99.90
13980;DHT22;73871;49.900;8.594;2023-11-21T08:02:07;9.90;99.90
13980;DHT22;73871;49.900;8.594;2023-11-21T08:04:34;10.00;99.90
13980;DHT22;73871;49.900;8.594;2023-11-21T08:07:02;10.00;99.90
13980;DHT22;73871;49.900;8.594;2023-11-21T08:09:30;10.00;99.90
13980;DHT22;73871;49.900;8.594;2023-11-21T08:11:57;9.90;99.90
13980;DHT22;73871;49.900;8.594;2023-11-21T08:14:25;9.90;99.90
13980;DHT22;73871;49.900;8.594;2023-11-21T08:16:52;10.00;99.90
13980;DHT22;73871;49.900;8.594;2023-11-21T08:19:19;10.00;99.90
13980;DHT22;73871;49.900;8.594;2023-11-21T08:21:45;10.00;99.90
13980;DHT22;73871;49.900;8.594;2023-11-21T08:24:12;10.10;99.90
13980;DHT22;73871;49.900;8.594;2023-11-21T08:26:39;10.10;99.90
13980;DHT22;73871;49.900;8.594;2023-11-21T08:29:05;10.20;99.90
13980;DHT22;73871;49.900;8.594;2023-11-21T08:31:34;10.20;99.90
13980;DHT22;73871;49.900;8.594;2023-11-21T08:34:00;10.20;99.90
13980;DHT22;73871;49.900;8.594;2023-11-21T08:36:29;10.20;99.90
13980;DHT22;73871;49.900;8.594;2023-11-21T08:38:58;10.20;99.90
13980;DHT22;73871;49.900;8.594;2023-11-21T08:41:25;10.20;99.90
13980;DHT22;73871;49.900;8.594;2023-11-21T08:43:54;10.20;99.90
13980;DHT22;73871;49.900;8.594;2023-11-21T08:46:22;10.20;99.90
13980;DHT22;73871;49.900;8.594;2023-11-21T08:48:49;10.30;99.90
13980;DHT22;73871;49.900;8.594;2023-11-21T08:51:19;10.30;99.90
13980;DHT22;73871;49.900;8.594;2023-11-21T08:53:45;10.30;99.90
13980;DHT22;73871;49.900;8.594;2023-11-21T08:56:15;10.30;99.90
13980;DHT22;73871;49.900;8.594;2023-11-21T08:58:42;10.40;99.90
13980;DHT22;73871;49.900;8.594;2023-11-21T09:01:09;10.50;99.90
13980;DHT22;73871;49.900;8.594;2023-11-21T09:03:36;10.50;99.90
13980;DHT22;73871;49.900;8.594;2023-11-21T09:06:03;10.60;99.90
13980;DHT22;73871;49.900;8.594;2023-11-21T09:08:30;10.60;99.90
13980;DHT22;73871;49.900;8.594;2023-11-21T09:10:58;10.70;99.90
13980;DHT22;73871;49.900;8.594;2023-11-21T09:13:25;10.70;99.90
13980;DHT22;73871;49.900;8.594;2023-11-21T09:15:52;10.60;99.90
13980;DHT22;73871;49.900;8.594;2023-11-21T09:18:18;10.50;99.90
13980;DHT22;73871;49.900;8.594;2023-11-21T09:20:45;10.50;99.90
13980;DHT22;73871;49.900;8.594;2023-11-21T09:23:12;10.50;99.90
13980;DHT22;73871;49.900;8.594;2023-11-21T09:25:39;10.60;99.90
13980;DHT22;73871;49.900;8.594;2023-11-21T09:28:06;10.50;99.90
13980;DHT22;73871;49.900;8.594;2023-11-21T09:30:34;10.50;99.90
13980;DHT22;73871;49.900;8.594;2023-11-21T09:33:02;10.50;99.90
13980;DHT22;73871;49.900;8.594;2023-11-21T09:35:29;10.60;99.90
13980;DHT22;73871;49.900;8.594;2023-11-21T09:37:55;10.50;99.90
13980;DHT22;73871;49.900;8.594;2023-11-21T09:40:22;10.50;99.90
13980;DHT22;73871;49.900;8.594;2023-11-21T09:42:57;10.50;99.90
13980;DHT22;73871;49.900;8.594;2023-11-21T09:45:29;10.50;99.90
13980;DHT22;73871;49.900;8.594;2023-11-21T09:48:01;10.50;99.90
13980;DHT22;73871;49.900;8.594;2023-11-21T09:50:28;10.70;99.90
13980;DHT22;73871;49.900;8.594;2023-11-21T09:53:18;10.80;99.90
13980;DHT22;73871;49.900;8.594;2023-11-21T09:55:50;10.90;99.90
13980;DHT22;73871;49.900;8.594;2023-11-21T09:58:19;10.90;99.90
13980;DHT22;73871;49.900;8.594;2023-11-21T10:00:47;10.90;99.90
13980;DHT22;73871;49.900;8.594;2023-11-21T10:03:15;10.80;99.90
13980;DHT22;73871;49.900;8.594;2023-11-21T10:05:43;10.80;99.90
13980;DHT22;73871;49.900;8.594;2023-11-21T10:08:11;10.90;99.90
13980;DHT22;73871;49.900;8.594;2023-11-21T10:10:43;11.00;99.90
13980;DHT22;73871;49.900;8.594;2023-11-21T10:13:15;10.90;99.90
13980;DHT22;73871;49.900;8.594;2023-11-21T10:15:51;10.80;99.90
13980;DHT22;73871;49.900;8.594;2023-11-21T10:18:20;10.90;99.90
13980;DHT22;73871;49.900;8.594;2023-11-21T10:20:49;11.00;99.90
13980;DHT22;73871;49.900;8.594;2023-11-21T10:23:21;11.20;99.90
13980;DHT22;73871;49.900;8.594;2023-11-21T10:25:50;11.30;99.90
13980;DHT22;73871;49.900;8.594;2023-11-21T10:28:18;11.40;99.90
13980;DHT22;73871;49.900;8.594;2023-11-21T10:30:45;11.60;99.90
13980;DHT22;73871;49.900;8.594;2023-11-21T10:33:12;11.70;99.90
13980;DHT22;73871;49.900;8.594;2023-11-21T10:35:46;11.70;99.90
13980;DHT22;73871;49.900;8.594;2023-11-21T10:38:21;11.90;99.90
13980;DHT22;73871;49.900;8.594;2023-11-21T10:40:51;12.10;99.90
13980;DHT22;73871;49.900;8.594;2023-11-21T10:43:18;12.30;99.90
13980;DHT22;73871;49.900;8.594;2023-11-21T10:45:45;12.30;99.90
13980;DHT22;73871;49.900;8.594;2023-11-21T10:48:14;12.30;99.90
13980;DHT22;73871;49.900;8.594;2023-11-21T10:50:48;12.30;99.90
13980;DHT22;73871;49.900;8.594;2023-11-21T10:53:15;12.30;99.90
13980;DHT22;73871;49.900;8.594;2023-11-21T10:55:42;12.40;99.90
13980;DHT22;73871;49.900;8.594;2023-11-21T10:58:13;12.20;99.90
13980;DHT22;73871;49.900;8.594;2023-11-21T11:00:40;12.00;99.90
13980;DHT22;73871;49.900;8.594;2023-11-21T11:03:09;11.80;99.90
13980;DHT22;73871;49.900;8.594;2023-11-21T11:05:44;11.60;99.90
13980;DHT22;73871;49.900;8.594;2023-11-21T11:08:29;11.30;99.90
13980;DHT22;73871;49.900;8.594;2023-11-21T11:10:56;11.20;99.90
13980;DHT22;73871;49.900;8.594;2023-11-21T11:13:25;11.30;99.90
13980;DHT22;73871;49.900;8.594;2023-11-21T11:16:00;11.50;99.90
13980;DHT22;73871;49.900;8.594;2023-11-21T11:18:29;11.60;99.90
13980;DHT22;73871;49.900;8.594;2023-11-21T11:32:09;12.10;99.90
13980;DHT22;73871;49.900;8.594;2023-11-21T11:35:07;12.30;99.90
13980;DHT22;73871;49.900;8.594;2023-11-21T11:37:37;12.30;99.90
13980;DHT22;73871;49.900;8.594;2023-11-21T11:40:06;12.40;99.90
13980;DHT22;73871;49.900;8.594;2023-11-21T11:42:33;12.70;99.90
13980;DHT22;73871;49.900;8.594;2023-11-21T11:45:00;12.80;99.90
13980;DHT22;73871;49.900;8.594;2023-11-21T11:47:32;13.00;99.90
13980;DHT22;73871;49.900;8.594;2023-11-21T11:50:05;13.20;99.90
13980;DHT22;73871;49.900;8.594;2023-11-21T11:52:41;13.50;99.90
13980;DHT22;73871;49.900;8.594;2023-11-21T11:55:10;13.30;99.90
13980;DHT22;73871;49.900;8.594;2023-11-21T11:57:38;13.20;99.90
13980;DHT22;73871;49.900;8.594;2023-11-21T12:00:22;13.10;99.90
13980;DHT22;73871;49.900;8.594;2023-11-21T12:02:59;13.00;99.90
13980;DHT22;73871;49.900;8.594;2023-11-21T12:05:34;13.00;99.90
13980;DHT22;73871;49.900;8.594;2023-11-21T12:08:09;13.10;99.90
13980;DHT22;73871;49.900;8.594;2023-11-21T12:10:38;13.00;99.90
13980;DHT22;73871;49.900;8.594;2023-11-21T12:13:10;13.10;99.90
13980;DHT22;73871;49.900;8.594;2023-11-21T12:15:39;12.80;99.90
13980;DHT22;73871;49.900;8.594;2023-11-21T12:18:08;12.80;99.90
13980;DHT22;73871;49.900;8.594;2023-11-21T12:20:35;12.90;99.90
13980;DHT22;73871;49.900;8.594;2023-11-21T12:23:09;13.00;99.90
13980;DHT22;73871;49.900;8.594;2023-11-21T12:25:37;13.20;99.90
13980;DHT22;73871;49.900;8.594;2023-11-21T12:28:08;13.30;99.90
13980;DHT22;73871;49.900;8.594;2023-11-21T12:30:36;13.20;99.90
13980;DHT22;73871;49.900;8.594;2023-11-21T12:33:04;13.10;99.90
13980;DHT22;73871;49.900;8.594;2023-11-21T12:35:34;13.00;99.90
13980;DHT22;73871;49.900;8.594;2023-11-21T12:38:03;12.80;99.90
13980;DHT22;73871;49.900;8.594;2023-11-21T12:40:30;12.80;99.90
13980;DHT22;73871;49.900;8.594;2023-11-21T12:42:59;12.80;99.90
13980;DHT22;73871;49.900;8.594;2023-11-21T12:45:28;12.70;99.90
13980;DHT22;73871;49.900;8.594;2023-11-21T12:48:04;12.60;99.90
13980;DHT22;73871;49.900;8.594;2023-11-21T12:50:36;12.50;99.90
13980;DHT22;73871;49.900;8.594;2023-11-21T12:53:06;12.40;99.90
13980;DHT22;73871;49.900;8.594;2023-11-21T12:55:35;12.40;99.90
13980;DHT22;73871;49.900;8.594;2023-11-21T12:58:06;12.30;99.90
13980;DHT22;73871;49.900;8.594;2023-11-21T13:00:48;12.30;99.90
13980;DHT22;73871;49.900;8.594;2023-11-21T13:03:16;12.20;99.90
13980;DHT22;73871;49.900;8.594;2023-11-21T13:05:47;12.10;99.90
13980;DHT22;73871;49.900;8.594;2023-11-21T13:08:20;12.20;99.90
13980;DHT22;73871;49.900;8.594;2023-11-21T13:10:54;12.10;99.90
13980;DHT22;73871;49.900;8.594;2023-11-21T13:13:23;12.10;99.90
13980;DHT22;73871;49.900;8.594;2023-11-21T13:16:04;12.10;99.90
13980;DHT22;73871;49.900;8.594;2023-11-21T13:18:32;12.10;99.90
13980;DHT22;73871;49.900;8.594;2023-11-21T13:21:02;12.00;99.90
13980;DHT22;73871;49.900;8.594;2023-11-21T13:23:43;11.90;99.90
13980;DHT22;73871;49.900;8.594;2023-11-21T13:26:12;11.90;99.90
13980;DHT22;73871;49.900;8.594;2023-11-21T13:28:41;11.90;99.90
13980;DHT22;73871;49.900;8.594;2023-11-21T13:31:13;11.80;99.90
13980;DHT22;73871;49.900;8.594;2023-11-21T13:33:59;11.80;99.90
13980;DHT22;73871;49.900;8.594;2023-11-21T13:36:32;11.80;99.90
13980;DHT22;73871;49.900;8.594;2023-11-21T13:39:03;11.80;99.90
13980;DHT22;73871;49.900;8.594;2023-11-21T13:41:35;11.80;99.90
13980;DHT22;73871;49.900;8.594;2023-11-21T13:44:04;11.70;99.90
13980;DHT22;73871;49.900;8.594;2023-11-21T13:46:44;11.80;99.90
13980;DHT22;73871;49.900;8.594;2023-11-21T13:49:12;11.70;99.90
13980;DHT22;73871;49.900;8.594;2023-11-21T13:51:40;11.70;99.90
13980;DHT22;73871;49.900;8.594;2023-11-21T13:54:11;11.70;99.90
13980;DHT22;73871;49.900;8.594;2023-11-21T13:56:37;11.80;99.90
13980;DHT22;73871;49.900;8.594;2023-11-21T13:59:06;11.70;99.90
13980;DHT22;73871;49.900;8.594;2023-11-21T14:01:45;11.80;99.90
13980;DHT22;73871;49.900;8.594;2023-11-21T14:04:22;11.80;99.90
13980;DHT22;73871;49.900;8.594;2023-11-21T14:07:19;11.80;99.90
13980;DHT22;73871;49.900;8.594;2023-11-21T14:10:02;11.80;99.90
13980;DHT22;73871;49.900;8.594;2023-11-21T14:12:30;11.70;99.90
13980;DHT22;73871;49.900;8.594;2023-11-21T14:15:04;11.70;99.90
13980;DHT22;73871;49.900;8.594;2023-11-21T14:17:34;11.70;99.90
13980;DHT22;73871;49.900;8.594;2023-11-21T14:20:02;11.70;99.90
13980;DHT22;73871;49.900;8.594;2023-11-21T14:22:31;11.60;99.90
13980;DHT22;73871;49.900;8.594;2023-11-21T14:24:58;11.60;99.90
13980;DHT22;73871;49.900;8.594;2023-11-21T14:27:30;11.50;99.90
13980;DHT22;73871;49.900;8.594;2023-11-21T14:29:56;11.50;99.90
13980;DHT22;73871;49.900;8.594;2023-11-21T14:32:24;11.40;99.90
13980;DHT22;73871;49.900;8.594;2023-11-21T14:34:52;11.40;99.90
13980;DHT22;73871;49.900;8.594;2023-11-21T14:37:19;11.40;99.90
13980;DHT22;73871;49.900;8.594;2023-11-21T14:39:46;11.40;99.90
13980;DHT22;73871;49.900;8.594;2023-11-21T14:42:16;11.40;99.90
13980;DHT22;73871;49.900;8.594;2023-11-21T14:44:47;11.40;99.90
13980;DHT22;73871;49.900;8.594;2023-11-21T14:47:14;11.30;99.90
13980;DHT22;73871;49.900;8.594;2023-11-21T14:49:42;11.30;99.90
13980;DHT22;73871;49.900;8.594;2023-11-21T14:52:20;11.20;99.90
13980;DHT22;73871;49.900;8.594;2023-11-21T14:55:05;11.20;99.90
13980;DHT22;73871;49.900;8.594;2023-11-21T14:57:52;11.20;99.90
13980;DHT22;73871;49.900;8.594;2023-11-21T15:00:20;11.20;99.90
13980;DHT22;73871;49.900;8.594;2023-11-21T15:03:04;11.20;99.90
13980;DHT22;73871;49.900;8.594;2023-11-21T15:05:31;11.20;99.90
13980;DHT22;73871;49.900;8.594;2023-11-21T15:07:58;11.20;99.90
13980;DHT22;73871;49.900;8.594;2023-11-21T15:10:38;11.10;99.90
13980;DHT22;73871;49.900;8.594;2023-11-21T15:13:13;11.10;99.90
13980;DHT22;73871;49.900;8.594;2023-11-21T15:15:42;11.00;99.90
13980;DHT22;73871;49.900;8.594;2023-11-21T15:18:09;11.00;99.90
13980;DHT22;73871;49.900;8.594;2023-11-21T15:20:42;11.00;99.90
13980;DHT22;73871;49.900;8.594;2023-11-21T15:23:10;10.90;99.90
13980;DHT22;73871;49.900;8.594;2023-11-21T15:25:36;10.90;99.90
13980;DHT22;73871;49.900;8.594;2023-11-21T15:28:04;10.80;99.90
13980;DHT22;73871;49.900;8.594;2023-11-21T15:30:31;10.80;99.90
13980;DHT22;73871;49.900;8.594;2023-11-21T15:33:00;10.80;99.90
13980;DHT22;73871;49.900;8.594;2023-11-21T15:35:26;10.80;99.90
13980;DHT22;73871;49.900;8.594;2023-11-21T15:37:57;10.70;99.90
13980;DHT22;73871;49.900;8.594;2023-11-21T15:40:25;10.70;99.90
13980;DHT22;73871;49.900;8.594;2023-11-21T15:42:52;10.70;99.90
13980;DHT22;73871;49.900;8.594;2023-11-21T15:45:18;10.60;99.90
13980;DHT22;73871;49.900;8.594;2023-11-21T15:47:48;10.70;99.90
13980;DHT22;73871;49.900;8.594;2023-11-21T15:50:14;10.60;99.90
13980;DHT22;73871;49.900;8.594;2023-11-21T15:52:42;10.60;99.90
13980;DHT22;73871;49.900;8.594;2023-11-21T15:55:24;10.50;99.90
13980;DHT22;73871;49.900;8.594;2023-11-21T15:57:51;10.50;99.90
13980;DHT22;73871;49.900;8.594;2023-11-21T16:00:18;10.50;99.90